sensor_id;sensor_type;location;lat;lon;timestamp;P1;durP1;ratioP1;P2;durP2;ratioP2
69358;SDS011;56520;49.066;8.660;2023-08-06T00:00:08;2.70;;;0.90;;
69358;SDS011;56520;49.066;8.660;2023-08-06T00:02:34;2.53;;;1.00;;
69358;SDS011;56520;49.066;8.660;2023-08-06T00:04:59;2.50;;;1.15;;
69358;SDS011;56520;49.066;8.660;2023-08-06T00:07:25;2.35;;;0.93;;
69358;SDS011;56520;49.066;8.660;2023-08-06T00:09:50;2.80;;;1.17;;
69358;SDS011;56520;49.066;8.660;2023-08-06T00:12:16;2.22;;;0.80;;
69358;SDS011;56520;49.066;8.660;2023-08-06T00:14:41;3.58;;;1.27;;
69358;SDS011;56520;49.066;8.660;2023-08-06T00:17:07;2.92;;;1.10;;
69358;SDS011;56520;49.066;8.660;2023-08-06T00:19:33;2.45;;;1.10;;
69358;SDS011;56520;49.066;8.660;2023-08-06T00:21:58;2.60;;;0.95;;
69358;SDS011;56520;49.066;8.660;2023-08-06T00:24:23;2.70;;;0.82;;
69358;SDS011;56520;49.066;8.660;2023-08-06T00:26:49;2.10;;;0.90;;
69358;SDS011;56520;49.066;8.660;2023-08-06T00:29:14;2.70;;;1.00;;
69358;SDS011;56520;49.066;8.660;2023-08-06T00:31:40;3.97;;;1.40;;
69358;SDS011;56520;49.066;8.660;2023-08-06T00:34:05;4.88;;;1.10;;
69358;SDS011;56520;49.066;8.660;2023-08-06T00:36:31;3.67;;;1.17;;
69358;SDS011;56520;49.066;8.660;2023-08-06T00:38:56;3.55;;;1.10;;
69358;SDS011;56520;49.066;8.660;2023-08-06T00:41:21;3.60;;;1.33;;
69358;SDS011;56520;49.066;8.660;2023-08-06T00:43:47;4.43;;;1.27;;
69358;SDS011;56520;49.066;8.660;2023-08-06T00:46:12;2.58;;;1.05;;
69358;SDS011;56520;49.066;8.660;2023-08-06T00:48:39;3.78;;;1.50;;
69358;SDS011;56520;49.066;8.660;2023-08-06T00:51:05;3.47;;;1.30;;
69358;SDS011;56520;49.066;8.660;2023-08-06T00:53:31;3.30;;;1.15;;
69358;SDS011;56520;49.066;8.660;2023-08-06T00:55:56;2.95;;;1.17;;
69358;SDS011;56520;49.066;8.660;2023-08-06T00:58:23;2.55;;;1.10;;
69358;SDS011;56520;49.066;8.660;2023-08-06T01:00:49;3.90;;;1.40;;
69358;SDS011;56520;49.066;8.660;2023-08-06T01:03:14;3.67;;;1.30;;
69358;SDS011;56520;49.066;8.660;2023-08-06T01:05:40;4.00;;;1.35;;
69358;SDS011;56520;49.066;8.660;2023-08-06T01:08:09;3.58;;;1.52;;
69358;SDS011;56520;49.066;8.660;2023-08-06T01:13:45;4.70;;;1.67;;
69358;SDS011;56520;49.066;8.660;2023-08-06T01:16:15;4.32;;;1.30;;
69358;SDS011;56520;49.066;8.660;2023-08-06T01:18:43;3.63;;;1.40;;
69358;SDS011;56520;49.066;8.660;2023-08-06T01:21:12;3.70;;;1.30;;
69358;SDS011;56520;49.066;8.660;2023-08-06T01:23:38;4.03;;;1.35;;
69358;SDS011;56520;49.066;8.660;2023-08-06T01:26:11;4.20;;;1.45;;
69358;SDS011;56520;49.066;8.660;2023-08-06T01:28:56;3.63;;;1.15;;
69358;SDS011;56520;49.066;8.660;2023-08-06T01:31:39;3.80;;;1.70;;
69358;SDS011;56520;49.066;8.660;2023-08-06T01:34:13;3.60;;;1.23;;
69358;SDS011;56520;49.066;8.660;2023-08-06T01:36:42;3.63;;;1.38;;
69358;SDS011;56520;49.066;8.660;2023-08-06T01:39:09;3.22;;;1.20;;
69358;SDS011;56520;49.066;8.660;2023-08-06T01:41:34;3.67;;;1.27;;
69358;SDS011;56520;49.066;8.660;2023-08-06T01:43:59;2.58;;;1.08;;
69358;SDS011;56520;49.066;8.660;2023-08-06T01:46:25;4.10;;;1.20;;
69358;SDS011;56520;49.066;8.660;2023-08-06T01:48:50;3.92;;;1.40;;
69358;SDS011;56520;49.066;8.660;2023-08-06T01:51:16;3.05;;;1.15;;
69358;SDS011;56520;49.066;8.660;2023-08-06T01:53:41;3.42;;;1.30;;
69358;SDS011;56520;49.066;8.660;2023-08-06T01:56:06;2.85;;;1.13;;
69358;SDS011;56520;49.066;8.660;2023-08-06T01:58:32;4.68;;;1.50;;
69358;SDS011;56520;49.066;8.660;2023-08-06T02:00:57;3.00;;;1.10;;
69358;SDS011;56520;49.066;8.660;2023-08-06T02:03:23;3.00;;;1.10;;
69358;SDS011;56520;49.066;8.660;2023-08-06T02:05:48;2.97;;;1.02;;
69358;SDS011;56520;49.066;8.660;2023-08-06T02:08:14;3.28;;;1.10;;
69358;SDS011;56520;49.066;8.660;2023-08-06T02:10:39;3.83;;;1.30;;
69358;SDS011;56520;49.066;8.660;2023-08-06T02:13:04;2.90;;;1.17;;
69358;SDS011;56520;49.066;8.660;2023-08-06T02:15:30;1.90;;;0.75;;
69358;SDS011;56520;49.066;8.660;2023-08-06T02:17:55;2.63;;;1.10;;
69358;SDS011;56520;49.066;8.660;2023-08-06T02:20:21;2.40;;;1.00;;
69358;SDS011;56520;49.066;8.660;2023-08-06T02:22:46;2.65;;;0.98;;
69358;SDS011;56520;49.066;8.660;2023-08-06T02:25:12;2.72;;;1.10;;
69358;SDS011;56520;49.066;8.660;2023-08-06T02:27:37;3.20;;;1.17;;
69358;SDS011;56520;49.066;8.660;2023-08-06T02:30:03;3.58;;;1.20;;
69358;SDS011;56520;49.066;8.660;2023-08-06T02:32:29;3.70;;;1.20;;
69358;SDS011;56520;49.066;8.660;2023-08-06T02:34:59;3.70;;;1.30;;
69358;SDS011;56520;49.066;8.660;2023-08-06T02:37:25;2.72;;;1.23;;
69358;SDS011;56520;49.066;8.660;2023-08-06T02:39:50;2.67;;;1.20;;
69358;SDS011;56520;49.066;8.660;2023-08-06T02:42:16;2.83;;;1.05;;
69358;SDS011;56520;49.066;8.660;2023-08-06T02:44:41;2.95;;;1.10;;
69358;SDS011;56520;49.066;8.660;2023-08-06T02:47:09;2.67;;;1.08;;
69358;SDS011;56520;49.066;8.660;2023-08-06T02:49:34;2.72;;;1.13;;
69358;SDS011;56520;49.066;8.660;2023-08-06T02:52:00;2.28;;;1.00;;
69358;SDS011;56520;49.066;8.660;2023-08-06T02:54:25;2.80;;;0.98;;
69358;SDS011;56520;49.066;8.660;2023-08-06T02:56:51;2.30;;;1.08;;
69358;SDS011;56520;49.066;8.660;2023-08-06T02:59:16;5.85;;;1.58;;
69358;SDS011;56520;49.066;8.660;2023-08-06T03:01:41;4.13;;;1.60;;
69358;SDS011;56520;49.066;8.660;2023-08-06T03:04:07;3.10;;;1.40;;
69358;SDS011;56520;49.066;8.660;2023-08-06T03:06:32;2.88;;;1.00;;
69358;SDS011;56520;49.066;8.660;2023-08-06T03:08:58;4.03;;;1.17;;
69358;SDS011;56520;49.066;8.660;2023-08-06T03:11:23;2.67;;;0.85;;
69358;SDS011;56520;49.066;8.660;2023-08-06T03:13:49;2.35;;;0.90;;
69358;SDS011;56520;49.066;8.660;2023-08-06T03:16:14;4.88;;;1.00;;
69358;SDS011;56520;49.066;8.660;2023-08-06T03:18:39;3.10;;;1.10;;
69358;SDS011;56520;49.066;8.660;2023-08-06T03:21:05;3.40;;;1.20;;
69358;SDS011;56520;49.066;8.660;2023-08-06T03:23:31;3.65;;;1.10;;
69358;SDS011;56520;49.066;8.660;2023-08-06T03:26:00;3.47;;;1.02;;
69358;SDS011;56520;49.066;8.660;2023-08-06T03:28:27;4.00;;;0.90;;
69358;SDS011;56520;49.066;8.660;2023-08-06T03:30:59;3.25;;;1.10;;
69358;SDS011;56520;49.066;8.660;2023-08-06T03:33:28;4.65;;;1.30;;
69358;SDS011;56520;49.066;8.660;2023-08-06T03:35:53;2.78;;;1.02;;
69358;SDS011;56520;49.066;8.660;2023-08-06T03:38:19;3.42;;;0.85;;
69358;SDS011;56520;49.066;8.660;2023-08-06T03:40:46;2.40;;;0.80;;
69358;SDS011;56520;49.066;8.660;2023-08-06T03:43:11;3.80;;;1.10;;
69358;SDS011;56520;49.066;8.660;2023-08-06T03:45:37;1.95;;;0.80;;
69358;SDS011;56520;49.066;8.660;2023-08-06T03:48:02;2.88;;;0.80;;
69358;SDS011;56520;49.066;8.660;2023-08-06T03:50:28;2.88;;;0.80;;
69358;SDS011;56520;49.066;8.660;2023-08-06T03:52:53;6.25;;;1.00;;
69358;SDS011;56520;49.066;8.660;2023-08-06T03:55:19;2.00;;;0.82;;
69358;SDS011;56520;49.066;8.660;2023-08-06T03:57:44;2.78;;;1.00;;
69358;SDS011;56520;49.066;8.660;2023-08-06T04:00:10;4.43;;;1.20;;
69358;SDS011;56520;49.066;8.660;2023-08-06T04:02:35;1.65;;;0.90;;
69358;SDS011;56520;49.066;8.660;2023-08-06T04:05:01;3.60;;;0.93;;
69358;SDS011;56520;49.066;8.660;2023-08-06T04:07:26;2.70;;;0.93;;
69358;SDS011;56520;49.066;8.660;2023-08-06T04:09:52;2.80;;;0.73;;
69358;SDS011;56520;49.066;8.660;2023-08-06T04:12:30;2.85;;;0.85;;
69358;SDS011;56520;49.066;8.660;2023-08-06T04:14:57;3.90;;;1.10;;
69358;SDS011;56520;49.066;8.660;2023-08-06T04:17:23;3.75;;;0.70;;
69358;SDS011;56520;49.066;8.660;2023-08-06T04:19:52;2.45;;;0.90;;
69358;SDS011;56520;49.066;8.660;2023-08-06T04:22:19;1.73;;;0.60;;
69358;SDS011;56520;49.066;8.660;2023-08-06T04:24:46;1.55;;;0.70;;
69358;SDS011;56520;49.066;8.660;2023-08-06T04:27:12;3.40;;;1.13;;
69358;SDS011;56520;49.066;8.660;2023-08-06T04:29:38;1.92;;;0.70;;
69358;SDS011;56520;49.066;8.660;2023-08-06T04:32:05;3.63;;;0.90;;
69358;SDS011;56520;49.066;8.660;2023-08-06T04:34:31;4.25;;;0.80;;
69358;SDS011;56520;49.066;8.660;2023-08-06T04:36:57;2.10;;;0.77;;
69358;SDS011;56520;49.066;8.660;2023-08-06T04:39:23;2.63;;;0.80;;
69358;SDS011;56520;49.066;8.660;2023-08-06T04:41:48;4.03;;;0.90;;
69358;SDS011;56520;49.066;8.660;2023-08-06T04:44:13;2.22;;;0.70;;
69358;SDS011;56520;49.066;8.660;2023-08-06T04:46:42;1.33;;;0.50;;
69358;SDS011;56520;49.066;8.660;2023-08-06T04:49:07;2.33;;;0.70;;
69358;SDS011;56520;49.066;8.660;2023-08-06T04:51:33;1.88;;;0.60;;
69358;SDS011;56520;49.066;8.660;2023-08-06T04:53:58;2.40;;;0.70;;
69358;SDS011;56520;49.066;8.660;2023-08-06T04:56:23;1.88;;;0.73;;
69358;SDS011;56520;49.066;8.660;2023-08-06T04:58:49;5.40;;;0.70;;
69358;SDS011;56520;49.066;8.660;2023-08-06T05:01:15;1.55;;;0.60;;
69358;SDS011;56520;49.066;8.660;2023-08-06T05:03:40;3.08;;;0.93;;
69358;SDS011;56520;49.066;8.660;2023-08-06T05:06:06;1.17;;;0.60;;
69358;SDS011;56520;49.066;8.660;2023-08-06T05:08:31;1.17;;;0.65;;
69358;SDS011;56520;49.066;8.660;2023-08-06T05:10:59;1.88;;;0.43;;
69358;SDS011;56520;49.066;8.660;2023-08-06T05:13:25;2.83;;;0.60;;
69358;SDS011;56520;49.066;8.660;2023-08-06T05:15:50;1.27;;;0.50;;
69358;SDS011;56520;49.066;8.660;2023-08-06T05:18:18;2.38;;;0.68;;
69358;SDS011;56520;49.066;8.660;2023-08-06T05:20:43;2.17;;;0.60;;
69358;SDS011;56520;49.066;8.660;2023-08-06T05:23:09;2.10;;;0.70;;
69358;SDS011;56520;49.066;8.660;2023-08-06T05:25:34;1.42;;;0.40;;
69358;SDS011;56520;49.066;8.660;2023-08-06T05:28:00;0.82;;;0.52;;
69358;SDS011;56520;49.066;8.660;2023-08-06T05:30:26;2.83;;;0.90;;
69358;SDS011;56520;49.066;8.660;2023-08-06T05:32:52;1.83;;;0.73;;
69358;SDS011;56520;49.066;8.660;2023-08-06T05:35:17;1.10;;;0.60;;
69358;SDS011;56520;49.066;8.660;2023-08-06T05:37:43;2.53;;;0.63;;
69358;SDS011;56520;49.066;8.660;2023-08-06T05:40:08;1.15;;;0.50;;
69358;SDS011;56520;49.066;8.660;2023-08-06T05:42:34;1.95;;;0.82;;
69358;SDS011;56520;49.066;8.660;2023-08-06T05:44:59;0.88;;;0.40;;
69358;SDS011;56520;49.066;8.660;2023-08-06T05:47:25;2.97;;;0.93;;
69358;SDS011;56520;49.066;8.660;2023-08-06T05:49:50;1.67;;;0.80;;
69358;SDS011;56520;49.066;8.660;2023-08-06T05:52:16;3.78;;;1.00;;
69358;SDS011;56520;49.066;8.660;2023-08-06T05:54:41;0.80;;;0.60;;
69358;SDS011;56520;49.066;8.660;2023-08-06T05:57:06;2.63;;;0.70;;
69358;SDS011;56520;49.066;8.660;2023-08-06T05:59:32;3.67;;;0.57;;
69358;SDS011;56520;49.066;8.660;2023-08-06T06:01:57;1.13;;;0.60;;
69358;SDS011;56520;49.066;8.660;2023-08-06T06:04:23;1.55;;;0.73;;
69358;SDS011;56520;49.066;8.660;2023-08-06T06:06:48;4.07;;;0.60;;
69358;SDS011;56520;49.066;8.660;2023-08-06T06:09:13;1.02;;;0.50;;
69358;SDS011;56520;49.066;8.660;2023-08-06T06:11:39;2.10;;;0.35;;
69358;SDS011;56520;49.066;8.660;2023-08-06T06:14:04;0.70;;;0.50;;
69358;SDS011;56520;49.066;8.660;2023-08-06T06:16:30;0.98;;;0.45;;
69358;SDS011;56520;49.066;8.660;2023-08-06T06:18:55;3.78;;;0.60;;
69358;SDS011;56520;49.066;8.660;2023-08-06T06:21:22;2.42;;;0.68;;
69358;SDS011;56520;49.066;8.660;2023-08-06T06:23:48;1.20;;;0.60;;
69358;SDS011;56520;49.066;8.660;2023-08-06T06:26:13;1.40;;;0.45;;
69358;SDS011;56520;49.066;8.660;2023-08-06T06:28:39;0.52;;;0.40;;
69358;SDS011;56520;49.066;8.660;2023-08-06T06:31:04;0.98;;;0.50;;
69358;SDS011;56520;49.066;8.660;2023-08-06T06:33:29;2.17;;;0.52;;
69358;SDS011;56520;49.066;8.660;2023-08-06T06:35:55;2.30;;;0.60;;
69358;SDS011;56520;49.066;8.660;2023-08-06T06:38:20;1.50;;;0.57;;
69358;SDS011;56520;49.066;8.660;2023-08-06T06:40:56;3.17;;;0.50;;
69358;SDS011;56520;49.066;8.660;2023-08-06T06:43:22;0.88;;;0.82;;
69358;SDS011;56520;49.066;8.660;2023-08-06T06:45:57;0.68;;;0.50;;
69358;SDS011;56520;49.066;8.660;2023-08-06T06:48:23;1.35;;;0.50;;
69358;SDS011;56520;49.066;8.660;2023-08-06T06:50:49;0.85;;;0.30;;
69358;SDS011;56520;49.066;8.660;2023-08-06T06:53:15;1.05;;;0.45;;
69358;SDS011;56520;49.066;8.660;2023-08-06T06:55:40;0.30;;;0.20;;
69358;SDS011;56520;49.066;8.660;2023-08-06T06:58:06;2.58;;;0.38;;
69358;SDS011;56520;49.066;8.660;2023-08-06T07:00:31;0.80;;;0.40;;
69358;SDS011;56520;49.066;8.660;2023-08-06T07:02:56;0.60;;;0.47;;
69358;SDS011;56520;49.066;8.660;2023-08-06T07:05:22;0.13;;;0.13;;
69358;SDS011;56520;49.066;8.660;2023-08-06T07:07:47;2.35;;;0.60;;
69358;SDS011;56520;49.066;8.660;2023-08-06T07:10:13;0.93;;;0.40;;
69358;SDS011;56520;49.066;8.660;2023-08-06T07:12:38;1.45;;;0.40;;
69358;SDS011;56520;49.066;8.660;2023-08-06T07:15:05;1.00;;;0.50;;
69358;SDS011;56520;49.066;8.660;2023-08-06T07:17:31;0.20;;;0.20;;
69358;SDS011;56520;49.066;8.660;2023-08-06T07:19:56;0.30;;;0.30;;
69358;SDS011;56520;49.066;8.660;2023-08-06T07:22:22;0.43;;;0.30;;
69358;SDS011;56520;49.066;8.660;2023-08-06T07:24:47;1.95;;;0.40;;
69358;SDS011;56520;49.066;8.660;2023-08-06T07:27:13;0.20;;;0.20;;
69358;SDS011;56520;49.066;8.660;2023-08-06T07:29:38;0.65;;;0.20;;
69358;SDS011;56520;49.066;8.660;2023-08-06T07:32:04;0.85;;;0.50;;
69358;SDS011;56520;49.066;8.660;2023-08-06T07:34:31;2.30;;;0.50;;
69358;SDS011;56520;49.066;8.660;2023-08-06T07:36:56;0.80;;;0.45;;
69358;SDS011;56520;49.066;8.660;2023-08-06T07:39:22;0.95;;;0.40;;
69358;SDS011;56520;49.066;8.660;2023-08-06T07:41:48;0.40;;;0.40;;
69358;SDS011;56520;49.066;8.660;2023-08-06T07:44:14;0.47;;;0.40;;
69358;SDS011;56520;49.066;8.660;2023-08-06T07:46:40;0.10;;;0.10;;
69358;SDS011;56520;49.066;8.660;2023-08-06T07:49:05;1.08;;;0.28;;
69358;SDS011;56520;49.066;8.660;2023-08-06T07:51:30;1.38;;;0.50;;
69358;SDS011;56520;49.066;8.660;2023-08-06T07:53:56;0.82;;;0.22;;
69358;SDS011;56520;49.066;8.660;2023-08-06T07:56:21;0.35;;;0.30;;
69358;SDS011;56520;49.066;8.660;2023-08-06T07:58:47;0.70;;;0.50;;
69358;SDS011;56520;49.066;8.660;2023-08-06T08:01:14;0.43;;;0.40;;
69358;SDS011;56520;49.066;8.660;2023-08-06T08:03:39;2.83;;;0.25;;
69358;SDS011;56520;49.066;8.660;2023-08-06T08:06:05;0.98;;;0.30;;
69358;SDS011;56520;49.066;8.660;2023-08-06T08:08:30;0.88;;;0.30;;
69358;SDS011;56520;49.066;8.660;2023-08-06T08:10:56;0.30;;;0.30;;
69358;SDS011;56520;49.066;8.660;2023-08-06T08:13:21;0.40;;;0.28;;
69358;SDS011;56520;49.066;8.660;2023-08-06T08:15:46;1.45;;;0.40;;
69358;SDS011;56520;49.066;8.660;2023-08-06T08:18:12;1.17;;;0.20;;
69358;SDS011;56520;49.066;8.660;2023-08-06T08:20:37;0.80;;;0.50;;
69358;SDS011;56520;49.066;8.660;2023-08-06T08:23:03;0.22;;;0.10;;
69358;SDS011;56520;49.066;8.660;2023-08-06T08:25:28;0.88;;;0.50;;
69358;SDS011;56520;49.066;8.660;2023-08-06T08:27:54;0.55;;;0.40;;
69358;SDS011;56520;49.066;8.660;2023-08-06T08:30:20;0.20;;;0.20;;
69358;SDS011;56520;49.066;8.660;2023-08-06T08:32:46;0.65;;;0.40;;
69358;SDS011;56520;49.066;8.660;2023-08-06T08:35:12;0.98;;;0.30;;
69358;SDS011;56520;49.066;8.660;2023-08-06T08:37:40;0.45;;;0.30;;
69358;SDS011;56520;49.066;8.660;2023-08-06T08:40:06;0.50;;;0.40;;
69358;SDS011;56520;49.066;8.660;2023-08-06T08:42:33;0.60;;;0.10;;
69358;SDS011;56520;49.066;8.660;2023-08-06T08:44:58;0.20;;;0.20;;
69358;SDS011;56520;49.066;8.660;2023-08-06T08:47:24;0.30;;;0.30;;
69358;SDS011;56520;49.066;8.660;2023-08-06T08:49:52;1.70;;;0.30;;
69358;SDS011;56520;49.066;8.660;2023-08-06T08:52:22;0.40;;;0.40;;
69358;SDS011;56520;49.066;8.660;2023-08-06T08:54:48;0.30;;;0.10;;
69358;SDS011;56520;49.066;8.660;2023-08-06T08:57:17;2.05;;;0.30;;
69358;SDS011;56520;49.066;8.660;2023-08-06T08:59:42;1.15;;;0.20;;
69358;SDS011;56520;49.066;8.660;2023-08-06T09:02:08;1.58;;;0.50;;
69358;SDS011;56520;49.066;8.660;2023-08-06T09:04:36;0.55;;;0.20;;
69358;SDS011;56520;49.066;8.660;2023-08-06T09:07:02;1.35;;;0.40;;
69358;SDS011;56520;49.066;8.660;2023-08-06T09:09:33;2.83;;;0.32;;
69358;SDS011;56520;49.066;8.660;2023-08-06T09:12:02;1.10;;;0.40;;
69358;SDS011;56520;49.066;8.660;2023-08-06T09:14:36;0.65;;;0.40;;
69358;SDS011;56520;49.066;8.660;2023-08-06T09:17:01;0.88;;;0.43;;
69358;SDS011;56520;49.066;8.660;2023-08-06T09:19:27;0.90;;;0.47;;
69358;SDS011;56520;49.066;8.660;2023-08-06T09:21:53;0.55;;;0.28;;
69358;SDS011;56520;49.066;8.660;2023-08-06T09:24:20;0.25;;;0.25;;
69358;SDS011;56520;49.066;8.660;2023-08-06T09:26:47;0.90;;;0.40;;
69358;SDS011;56520;49.066;8.660;2023-08-06T09:29:12;0.32;;;0.20;;
69358;SDS011;56520;49.066;8.660;2023-08-06T09:31:47;0.65;;;0.40;;
69358;SDS011;56520;49.066;8.660;2023-08-06T09:34:18;0.95;;;0.35;;
69358;SDS011;56520;49.066;8.660;2023-08-06T09:36:48;0.47;;;0.20;;
69358;SDS011;56520;49.066;8.660;2023-08-06T09:39:19;1.00;;;0.30;;
69358;SDS011;56520;49.066;8.660;2023-08-06T09:41:45;0.40;;;0.40;;
69358;SDS011;56520;49.066;8.660;2023-08-06T09:44:15;1.08;;;0.35;;
69358;SDS011;56520;49.066;8.660;2023-08-06T09:46:41;0.95;;;0.45;;
69358;SDS011;56520;49.066;8.660;2023-08-06T09:49:07;0.35;;;0.17;;
69358;SDS011;56520;49.066;8.660;2023-08-06T09:51:34;1.23;;;0.40;;
69358;SDS011;56520;49.066;8.660;2023-08-06T09:54:00;1.00;;;0.52;;
69358;SDS011;56520;49.066;8.660;2023-08-06T09:56:29;0.80;;;0.40;;
69358;SDS011;56520;49.066;8.660;2023-08-06T09:58:58;0.80;;;0.50;;
69358;SDS011;56520;49.066;8.660;2023-08-06T10:01:24;2.15;;;0.55;;
69358;SDS011;56520;49.066;8.660;2023-08-06T10:03:50;0.85;;;0.32;;
69358;SDS011;56520;49.066;8.660;2023-08-06T10:06:18;0.65;;;0.45;;
69358;SDS011;56520;49.066;8.660;2023-08-06T10:08:45;1.27;;;0.40;;
69358;SDS011;56520;49.066;8.660;2023-08-06T10:11:10;0.63;;;0.15;;
69358;SDS011;56520;49.066;8.660;2023-08-06T10:13:38;0.85;;;0.30;;
69358;SDS011;56520;49.066;8.660;2023-08-06T10:16:04;0.70;;;0.60;;
69358;SDS011;56520;49.066;8.660;2023-08-06T10:18:30;0.45;;;0.30;;
69358;SDS011;56520;49.066;8.660;2023-08-06T10:20:56;0.57;;;0.40;;
69358;SDS011;56520;49.066;8.660;2023-08-06T10:23:21;0.90;;;0.35;;
69358;SDS011;56520;49.066;8.660;2023-08-06T10:25:58;0.25;;;0.17;;
69358;SDS011;56520;49.066;8.660;2023-08-06T10:28:30;0.43;;;0.28;;
69358;SDS011;56520;49.066;8.660;2023-08-06T10:31:00;0.60;;;0.50;;
69358;SDS011;56520;49.066;8.660;2023-08-06T10:33:26;0.63;;;0.40;;
69358;SDS011;56520;49.066;8.660;2023-08-06T10:36:06;0.47;;;0.25;;
69358;SDS011;56520;49.066;8.660;2023-08-06T10:38:34;1.38;;;0.60;;
69358;SDS011;56520;49.066;8.660;2023-08-06T10:41:03;0.77;;;0.60;;
69358;SDS011;56520;49.066;8.660;2023-08-06T10:43:35;1.05;;;0.50;;
69358;SDS011;56520;49.066;8.660;2023-08-06T10:46:09;0.77;;;0.30;;
69358;SDS011;56520;49.066;8.660;2023-08-06T10:48:36;0.77;;;0.55;;
69358;SDS011;56520;49.066;8.660;2023-08-06T10:51:07;0.82;;;0.50;;
69358;SDS011;56520;49.066;8.660;2023-08-06T10:53:34;1.38;;;0.70;;
69358;SDS011;56520;49.066;8.660;2023-08-06T10:56:00;1.23;;;0.65;;
69358;SDS011;56520;49.066;8.660;2023-08-06T10:58:30;3.05;;;0.70;;
69358;SDS011;56520;49.066;8.660;2023-08-06T11:00:59;1.23;;;0.43;;
69358;SDS011;56520;49.066;8.660;2023-08-06T11:03:26;1.63;;;0.80;;
69358;SDS011;56520;49.066;8.660;2023-08-06T11:05:52;1.80;;;0.70;;
69358;SDS011;56520;49.066;8.660;2023-08-06T11:08:26;2.15;;;0.70;;
69358;SDS011;56520;49.066;8.660;2023-08-06T11:10:53;1.77;;;0.70;;
69358;SDS011;56520;49.066;8.660;2023-08-06T11:13:19;1.98;;;0.70;;
69358;SDS011;56520;49.066;8.660;2023-08-06T11:15:45;2.13;;;0.60;;
69358;SDS011;56520;49.066;8.660;2023-08-06T11:18:11;2.15;;;0.60;;
69358;SDS011;56520;49.066;8.660;2023-08-06T11:20:37;2.90;;;1.00;;
69358;SDS011;56520;49.066;8.660;2023-08-06T11:23:03;2.65;;;1.05;;
69358;SDS011;56520;49.066;8.660;2023-08-06T11:25:29;1.40;;;0.70;;
69358;SDS011;56520;49.066;8.660;2023-08-06T11:27:55;5.13;;;0.80;;
69358;SDS011;56520;49.066;8.660;2023-08-06T11:30:20;1.35;;;0.70;;
69358;SDS011;56520;49.066;8.660;2023-08-06T11:32:46;2.45;;;0.98;;
69358;SDS011;56520;49.066;8.660;2023-08-06T11:35:12;3.00;;;0.82;;
69358;SDS011;56520;49.066;8.660;2023-08-06T11:37:39;3.33;;;1.00;;
69358;SDS011;56520;49.066;8.660;2023-08-06T11:40:08;2.42;;;1.05;;
69358;SDS011;56520;49.066;8.660;2023-08-06T11:42:36;3.97;;;1.10;;
69358;SDS011;56520;49.066;8.660;2023-08-06T11:45:02;2.47;;;0.90;;
69358;SDS011;56520;49.066;8.660;2023-08-06T11:47:29;3.80;;;0.93;;
69358;SDS011;56520;49.066;8.660;2023-08-06T11:49:54;2.53;;;0.98;;
69358;SDS011;56520;49.066;8.660;2023-08-06T11:52:21;6.40;;;1.33;;
69358;SDS011;56520;49.066;8.660;2023-08-06T11:55:09;3.13;;;1.08;;
69358;SDS011;56520;49.066;8.660;2023-08-06T11:57:39;3.15;;;1.10;;
69358;SDS011;56520;49.066;8.660;2023-08-06T12:00:11;3.63;;;1.23;;
69358;SDS011;56520;49.066;8.660;2023-08-06T12:02:38;4.28;;;1.05;;
69358;SDS011;56520;49.066;8.660;2023-08-06T12:05:10;3.17;;;1.08;;
69358;SDS011;56520;49.066;8.660;2023-08-06T12:07:43;4.18;;;1.27;;
69358;SDS011;56520;49.066;8.660;2023-08-06T12:12:40;3.28;;;1.02;;
69358;SDS011;56520;49.066;8.660;2023-08-06T12:15:06;4.22;;;1.30;;
69358;SDS011;56520;49.066;8.660;2023-08-06T12:17:33;4.75;;;1.30;;
69358;SDS011;56520;49.066;8.660;2023-08-06T12:19:58;3.15;;;0.93;;
69358;SDS011;56520;49.066;8.660;2023-08-06T12:22:24;3.63;;;1.02;;
69358;SDS011;56520;49.066;8.660;2023-08-06T12:24:49;3.75;;;1.10;;
69358;SDS011;56520;49.066;8.660;2023-08-06T12:27:15;3.88;;;1.27;;
69358;SDS011;56520;49.066;8.660;2023-08-06T12:29:48;3.25;;;1.00;;
69358;SDS011;56520;49.066;8.660;2023-08-06T12:32:13;2.92;;;0.95;;
69358;SDS011;56520;49.066;8.660;2023-08-06T12:34:40;3.22;;;1.00;;
69358;SDS011;56520;49.066;8.660;2023-08-06T12:37:06;2.67;;;0.98;;
69358;SDS011;56520;49.066;8.660;2023-08-06T12:39:33;3.08;;;1.10;;
69358;SDS011;56520;49.066;8.660;2023-08-06T12:41:59;5.57;;;1.02;;
69358;SDS011;56520;49.066;8.660;2023-08-06T12:44:25;4.13;;;1.23;;
69358;SDS011;56520;49.066;8.660;2023-08-06T12:46:51;3.67;;;0.95;;
69358;SDS011;56520;49.066;8.660;2023-08-06T12:49:18;2.83;;;1.00;;
69358;SDS011;56520;49.066;8.660;2023-08-06T12:51:45;5.65;;;1.20;;
69358;SDS011;56520;49.066;8.660;2023-08-06T12:54:11;4.15;;;1.00;;
69358;SDS011;56520;49.066;8.660;2023-08-06T12:56:37;2.97;;;1.00;;
69358;SDS011;56520;49.066;8.660;2023-08-06T12:59:02;1.92;;;0.80;;
69358;SDS011;56520;49.066;8.660;2023-08-06T13:01:30;2.95;;;0.80;;
69358;SDS011;56520;49.066;8.660;2023-08-06T13:03:56;1.73;;;0.60;;
69358;SDS011;56520;49.066;8.660;2023-08-06T13:06:23;3.47;;;1.02;;
69358;SDS011;56520;49.066;8.660;2023-08-06T13:08:48;3.10;;;1.02;;
69358;SDS011;56520;49.066;8.660;2023-08-06T13:11:13;4.18;;;0.80;;
69358;SDS011;56520;49.066;8.660;2023-08-06T13:13:39;2.90;;;0.95;;
69358;SDS011;56520;49.066;8.660;2023-08-06T13:16:04;3.28;;;1.00;;
69358;SDS011;56520;49.066;8.660;2023-08-06T13:18:30;2.05;;;0.88;;
69358;SDS011;56520;49.066;8.660;2023-08-06T13:20:56;3.28;;;0.90;;
69358;SDS011;56520;49.066;8.660;2023-08-06T13:23:21;2.58;;;1.00;;
69358;SDS011;56520;49.066;8.660;2023-08-06T13:25:47;2.22;;;0.73;;
69358;SDS011;56520;49.066;8.660;2023-08-06T13:28:12;1.48;;;0.60;;
69358;SDS011;56520;49.066;8.660;2023-08-06T13:30:39;1.75;;;0.70;;
69358;SDS011;56520;49.066;8.660;2023-08-06T13:33:07;2.67;;;0.70;;
69358;SDS011;56520;49.066;8.660;2023-08-06T13:35:33;1.02;;;0.47;;
69358;SDS011;56520;49.066;8.660;2023-08-06T13:37:59;2.58;;;0.50;;
69358;SDS011;56520;49.066;8.660;2023-08-06T13:40:24;1.95;;;0.70;;
69358;SDS011;56520;49.066;8.660;2023-08-06T13:42:50;1.15;;;0.40;;
69358;SDS011;56520;49.066;8.660;2023-08-06T13:45:15;1.55;;;0.68;;
69358;SDS011;56520;49.066;8.660;2023-08-06T13:47:41;0.93;;;0.60;;
69358;SDS011;56520;49.066;8.660;2023-08-06T13:50:06;1.15;;;0.60;;
69358;SDS011;56520;49.066;8.660;2023-08-06T13:52:33;1.05;;;0.70;;
69358;SDS011;56520;49.066;8.660;2023-08-06T13:55:00;1.45;;;0.57;;
69358;SDS011;56520;49.066;8.660;2023-08-06T13:57:25;1.52;;;0.70;;
69358;SDS011;56520;49.066;8.660;2023-08-06T13:59:51;1.55;;;0.70;;
69358;SDS011;56520;49.066;8.660;2023-08-06T14:02:16;1.20;;;0.60;;
69358;SDS011;56520;49.066;8.660;2023-08-06T14:04:42;1.02;;;0.50;;
69358;SDS011;56520;49.066;8.660;2023-08-06T14:07:07;1.63;;;0.70;;
69358;SDS011;56520;49.066;8.660;2023-08-06T14:09:32;1.20;;;0.50;;
69358;SDS011;56520;49.066;8.660;2023-08-06T14:11:59;1.35;;;0.60;;
69358;SDS011;56520;49.066;8.660;2023-08-06T14:14:25;1.77;;;0.68;;
69358;SDS011;56520;49.066;8.660;2023-08-06T14:16:53;2.55;;;0.70;;
69358;SDS011;56520;49.066;8.660;2023-08-06T14:19:19;1.13;;;0.60;;
69358;SDS011;56520;49.066;8.660;2023-08-06T14:21:45;1.17;;;0.45;;
69358;SDS011;56520;49.066;8.660;2023-08-06T14:24:10;1.08;;;0.70;;
69358;SDS011;56520;49.066;8.660;2023-08-06T14:26:36;1.40;;;0.45;;
69358;SDS011;56520;49.066;8.660;2023-08-06T14:29:02;1.05;;;0.70;;
69358;SDS011;56520;49.066;8.660;2023-08-06T14:31:27;2.20;;;0.60;;
69358;SDS011;56520;49.066;8.660;2023-08-06T14:33:53;2.42;;;0.95;;
69358;SDS011;56520;49.066;8.660;2023-08-06T14:36:18;2.45;;;0.93;;
69358;SDS011;56520;49.066;8.660;2023-08-06T14:38:44;1.23;;;0.50;;
69358;SDS011;56520;49.066;8.660;2023-08-06T14:41:09;1.42;;;0.55;;
69358;SDS011;56520;49.066;8.660;2023-08-06T14:43:35;2.13;;;0.63;;
69358;SDS011;56520;49.066;8.660;2023-08-06T14:46:01;2.03;;;0.70;;
69358;SDS011;56520;49.066;8.660;2023-08-06T14:48:26;2.00;;;0.85;;